Big Horn, WY (82833)

6:56 PM MST on February 11, 2016 (GMT -0700)
Sheridan County | | Change Station
CLOSE
Current Station
Airport
Location: Sheridan,
Elevation: 3967 ft
Nearby Weather Stations

Elev 3967 ft 44.76 °N, 106.97 °W | Updated 3 minutes ago

Mostly Cloudy
Mostly Cloudy
41 °F
Feels Like 41 °F
N
0
Wind Variable Wind from North

Today
High -- | Low -- °F
--% Chance of Precip.
Yesterday
High -- | Low -- °F
Precip. -- in
Pressure 30.26 in
Visibility -9999.0 miles
Clouds Clear
Dew Point 23 °F
Humidity 49%
Rainfall 0.00 in
Snow Depth Not available.
7:14 AM 5:30 PM
Waxing Crescent, 16% visible
METAR KSHR 120153Z AUTO 00000KT CLR 05/M05 A3020 RMK AO2 SLP247 T00501050 $
Pressure 30.26 in
Visibility -9999.0 miles
Clouds Clear
Dew Point 23 °F
Humidity 49%
Rainfall 0.00 in
Snow Depth Not available.
7:14 AM 5:30 PM
Waxing Crescent, 16% visible
METAR KSHR 120153Z AUTO 00000KT CLR 05/M05 A3020 RMK AO2 SLP247 T00501050 $

10-Day Weather Forecast

Almanac

Astronomy

Feb. 11, 2016 Rise Set
Actual Time
Civil Twilight
Nautical Twilight
Astronomical Twilight
Moon
Length of Visible Light
Length of Day
Tomorrow will be .
, % of the Moon is Illuminated

Today's Extremes

State Highs State Lows

Community

WunderPhotos

Upload Photos

1,892,207 photos uploaded!

WunderBlog® & News

Nearby

Air Quality

  Air Quality AQ Index Pollutant
Not available.

Snow Depth

Station Depth Elevation

Earthquake Activity

City Distance Mag. Time & Date
Minimum magnitude displayed is 2.5.

Coastal Water Temperatures

Place Temperature

Stations

Nearby Weather Stations

Station Location Temp. Windchill Dew Point Humidity Wind Precip. Elev Updated Type
                   

Watches & Warnings

There are currently no watches in effect.